createdAt,value
2022-10-10T00:00:59.874Z,4.95
2022-10-10T00:03:27.070Z,3.70
2022-10-10T00:05:54.193Z,4.15
2022-10-10T00:08:20.918Z,4.70
2022-10-10T00:10:48.234Z,3.97
2022-10-10T00:13:15.482Z,4.45
2022-10-10T00:15:45.707Z,4.85
2022-10-10T00:18:15.703Z,4.82
2022-10-10T00:20:42.798Z,5.18
2022-10-10T00:23:09.889Z,4.30
2022-10-10T00:25:37.294Z,4.13
2022-10-10T00:28:05.149Z,3.80
2022-10-10T00:30:32.319Z,6.25
2022-10-10T00:33:00.101Z,4.50
2022-10-10T00:35:28.115Z,5.35
2022-10-10T00:37:55.323Z,5.57
2022-10-10T00:40:22.854Z,4.20
2022-10-10T00:42:50.166Z,4.10
2022-10-10T00:45:24.882Z,3.50
2022-10-10T00:47:53.308Z,3.50
2022-10-10T00:50:21.663Z,3.55
2022-10-10T00:52:49.221Z,3.88
2022-10-10T00:55:17.278Z,6.45
2022-10-10T00:57:44.391Z,5.18
2022-10-10T01:00:11.659Z,5.23
2022-10-10T01:02:38.729Z,7.67
2022-10-10T01:05:06.181Z,4.80
2022-10-10T01:07:34.177Z,5.35
2022-10-10T01:10:04.016Z,5.23
2022-10-10T01:12:39.766Z,4.85
2022-10-10T01:15:12.105Z,4.30
2022-10-10T01:17:44.265Z,3.40
2022-10-10T01:20:14.565Z,3.47
2022-10-10T01:22:53.304Z,5.43
2022-10-10T01:25:36.137Z,5.33
2022-10-10T01:28:11.203Z,4.25
2022-10-10T01:30:38.833Z,4.40
2022-10-10T01:33:09.454Z,4.43
2022-10-10T01:35:42.804Z,4.57
2022-10-10T01:38:29.854Z,4.03
2022-10-10T01:41:02.653Z,4.40
2022-10-10T01:43:30.710Z,6.03
2022-10-10T01:45:57.741Z,5.10
2022-10-10T01:48:28.005Z,5.22
2022-10-10T01:50:55.065Z,4.50
2022-10-10T01:53:27.132Z,4.70
2022-10-10T01:56:00.470Z,6.30
2022-10-10T01:58:35.376Z,6.93
2022-10-10T02:01:10.560Z,4.50
2022-10-10T02:03:40.001Z,4.75
2022-10-10T02:06:07.387Z,5.32
2022-10-10T02:08:36.532Z,5.70
2022-10-10T02:11:05.789Z,5.45
2022-10-10T02:13:36.956Z,5.20
2022-10-10T02:16:06.060Z,4.90
2022-10-10T02:18:34.396Z,4.50
2022-10-10T02:21:02.833Z,4.10
2022-10-10T02:23:30.552Z,5.75
2022-10-10T02:25:57.735Z,6.03
2022-10-10T02:28:26.800Z,5.00
2022-10-10T02:30:57.266Z,5.43
2022-10-10T02:33:28.062Z,4.60
2022-10-10T02:35:55.633Z,4.18
2022-10-10T02:38:22.840Z,5.77
2022-10-10T02:40:50.876Z,4.93
2022-10-10T02:43:18.807Z,4.32
2022-10-10T02:45:46.020Z,8.45
2022-10-10T02:48:13.111Z,4.32
2022-10-10T02:50:40.237Z,5.70
2022-10-10T02:53:07.283Z,5.03
2022-10-10T02:55:34.380Z,4.82
2022-10-10T02:58:01.451Z,4.95
2022-10-10T03:00:28.499Z,4.68
2022-10-10T03:02:55.555Z,5.60
2022-10-10T03:05:22.620Z,4.82
2022-10-10T03:07:50.522Z,4.20
2022-10-10T03:10:17.642Z,5.40
2022-10-10T03:12:44.667Z,4.88
2022-10-10T03:15:12.257Z,4.32
2022-10-10T03:17:39.853Z,4.20
2022-10-10T03:20:07.357Z,4.80
2022-10-10T03:22:34.440Z,4.53
2022-10-10T03:25:01.526Z,5.57
2022-10-10T03:27:28.815Z,5.88
2022-10-10T03:29:55.887Z,4.82
2022-10-10T03:32:22.954Z,6.07
2022-10-10T03:34:50.076Z,4.53
2022-10-10T03:37:17.111Z,4.60
2022-10-10T03:39:44.154Z,4.25
2022-10-10T03:42:11.189Z,3.97
2022-10-10T03:44:38.287Z,4.93
2022-10-10T03:47:05.387Z,5.40
2022-10-10T03:49:32.460Z,6.33
2022-10-10T03:52:01.340Z,7.63
2022-10-10T03:54:28.534Z,9.23
2022-10-10T03:56:55.594Z,7.90
2022-10-10T03:59:22.712Z,6.75
2022-10-10T04:01:49.803Z,4.30
2022-10-10T04:04:16.912Z,5.60
2022-10-10T04:06:44.087Z,5.50
2022-10-10T04:09:11.230Z,5.13
2022-10-10T04:11:38.655Z,5.50
2022-10-10T04:14:05.716Z,5.00
2022-10-10T04:16:32.950Z,5.93
2022-10-10T04:19:00.379Z,5.43
2022-10-10T04:21:27.582Z,4.40
2022-10-10T04:23:54.662Z,6.43
2022-10-10T04:26:21.679Z,7.20
2022-10-10T04:28:48.767Z,8.52
2022-10-10T04:31:15.423Z,6.30
2022-10-10T04:33:42.511Z,6.47
2022-10-10T04:36:09.554Z,6.10
2022-10-10T04:38:36.284Z,6.63
2022-10-10T04:41:03.482Z,8.32
2022-10-10T04:43:30.576Z,5.43
2022-10-10T04:45:58.411Z,5.45
2022-10-10T04:48:25.547Z,6.73
2022-10-10T04:50:53.358Z,6.03
2022-10-10T04:53:20.455Z,5.05
2022-10-10T04:55:47.893Z,5.68
2022-10-10T04:58:15.071Z,4.47
2022-10-10T05:00:42.290Z,5.47
2022-10-10T05:03:11.487Z,6.43
2022-10-10T05:05:38.910Z,5.07
2022-10-10T05:08:06.455Z,7.47
2022-10-10T05:10:36.858Z,5.88
2022-10-10T05:13:04.086Z,4.40
2022-10-10T05:15:31.262Z,5.70
2022-10-10T05:17:58.346Z,5.18
2022-10-10T05:20:25.417Z,5.27
2022-10-10T05:22:52.792Z,5.80
2022-10-10T05:25:20.370Z,8.10
2022-10-10T05:27:47.446Z,5.43
2022-10-10T05:30:14.889Z,5.50
2022-10-10T05:32:42.019Z,5.72
2022-10-10T05:35:09.293Z,5.75
2022-10-10T05:37:36.438Z,4.60
2022-10-10T05:40:03.927Z,4.50
2022-10-10T05:42:31.057Z,8.80
2022-10-10T05:44:58.162Z,6.85
2022-10-10T05:47:28.092Z,7.85
2022-10-10T05:49:55.360Z,5.43
2022-10-10T05:52:22.430Z,5.27
2022-10-10T05:54:49.507Z,5.20
2022-10-10T05:57:16.731Z,5.68
2022-10-10T05:59:43.829Z,4.67
2022-10-10T06:02:12.874Z,5.22
2022-10-10T06:04:40.182Z,4.93
2022-10-10T06:07:07.262Z,4.73
2022-10-10T06:09:34.377Z,5.47
2022-10-10T06:12:01.510Z,8.43
2022-10-10T06:14:28.556Z,6.70
2022-10-10T06:16:55.642Z,7.55
2022-10-10T06:19:22.741Z,8.50
2022-10-10T06:21:50.093Z,8.45
2022-10-10T06:24:17.102Z,9.02
2022-10-10T06:26:44.089Z,9.50
2022-10-10T06:29:11.241Z,8.40
2022-10-10T06:31:41.063Z,7.18
2022-10-10T06:34:08.369Z,7.13
2022-10-10T06:36:35.521Z,7.78
2022-10-10T06:39:02.690Z,14.18
2022-10-10T06:41:29.776Z,13.80
2022-10-10T06:43:57.241Z,7.88
2022-10-10T06:46:24.261Z,4.95
2022-10-10T06:48:51.328Z,5.88
2022-10-10T06:51:18.746Z,4.70
2022-10-10T06:53:46.252Z,4.60
2022-10-10T06:56:26.297Z,4.60
2022-10-10T06:58:54.559Z,13.57
2022-10-10T07:01:22.401Z,11.18
2022-10-10T07:03:49.416Z,12.85
2022-10-10T07:06:16.753Z,14.68
2022-10-10T07:08:43.800Z,14.80
2022-10-10T07:11:10.985Z,13.68
2022-10-10T07:13:38.304Z,11.57
2022-10-10T07:16:05.566Z,10.38
2022-10-10T07:18:33.774Z,8.82
2022-10-10T07:21:01.545Z,7.50
2022-10-10T07:23:29.152Z,7.47
2022-10-10T07:26:00.416Z,9.52
2022-10-10T07:28:27.877Z,7.00
2022-10-10T07:30:59.479Z,7.45
2022-10-10T07:33:26.649Z,6.75
2022-10-10T07:35:54.840Z,8.75
2022-10-10T07:38:21.908Z,7.38
2022-10-10T07:40:48.893Z,6.35
2022-10-10T07:43:15.938Z,6.35
2022-10-10T07:45:43.025Z,7.53
2022-10-10T07:48:10.068Z,8.00
2022-10-10T07:50:40.680Z,7.78
2022-10-10T07:53:08.051Z,6.20
2022-10-10T07:55:35.127Z,6.75
2022-10-10T07:58:03.728Z,5.73
2022-10-10T08:00:31.148Z,6.60
2022-10-10T08:02:58.548Z,8.05
2022-10-10T08:05:25.688Z,6.60
2022-10-10T08:07:53.106Z,5.30
2022-10-10T08:10:20.616Z,5.77
2022-10-10T08:12:47.723Z,5.10
2022-10-10T08:15:14.942Z,4.45
2022-10-10T08:17:42.128Z,7.25
2022-10-10T08:20:09.104Z,5.13
2022-10-10T08:22:36.191Z,5.13
2022-10-10T08:25:03.228Z,5.10
2022-10-10T08:27:30.351Z,5.80
2022-10-10T08:29:57.355Z,6.75
2022-10-10T08:32:24.405Z,5.20
2022-10-10T08:34:51.577Z,5.20
2022-10-10T08:37:18.703Z,5.07
2022-10-10T08:39:45.739Z,5.88
2022-10-10T08:42:16.810Z,5.97
2022-10-10T08:44:43.856Z,6.97
2022-10-10T08:47:10.879Z,6.85
2022-10-10T08:49:41.576Z,8.87
2022-10-10T08:52:14.260Z,6.65
2022-10-10T08:54:42.663Z,6.05
2022-10-10T08:57:21.403Z,6.00
2022-10-10T08:59:48.749Z,9.32
2022-10-10T09:02:53.279Z,7.40
2022-10-10T09:05:25.403Z,5.53
2022-10-10T09:08:00.607Z,6.63
2022-10-10T09:10:40.575Z,5.20
2022-10-10T09:13:19.723Z,6.72
2022-10-10T09:15:55.351Z,8.83
2022-10-10T09:18:30.811Z,8.30
2022-10-10T09:21:06.808Z,7.97
2022-10-10T09:23:44.382Z,7.90
2022-10-10T09:26:13.795Z,7.55
2022-10-10T09:28:40.868Z,7.25
2022-10-10T09:31:12.175Z,6.35
2022-10-10T09:33:41.305Z,8.23
2022-10-10T09:36:11.670Z,8.75
2022-10-10T09:38:41.962Z,7.10
2022-10-10T09:41:28.926Z,7.60
2022-10-10T09:43:57.346Z,7.90
2022-10-10T09:46:24.614Z,8.52
2022-10-10T09:48:52.278Z,7.32
2022-10-10T09:51:19.700Z,7.38
2022-10-10T09:53:48.374Z,7.30
2022-10-10T09:56:19.777Z,8.07
2022-10-10T09:58:49.277Z,6.18
2022-10-10T10:01:20.378Z,6.07
2022-10-10T10:04:26.451Z,5.70
2022-10-10T10:07:23.445Z,6.80
2022-10-10T10:09:52.473Z,5.70
2022-10-10T10:12:23.697Z,6.80
2022-10-10T10:14:51.747Z,5.57
2022-10-10T10:17:21.977Z,5.68
2022-10-10T10:19:48.690Z,5.50
2022-10-10T10:22:26.582Z,5.53
2022-10-10T10:24:54.385Z,4.72
2022-10-10T10:27:22.705Z,5.38
2022-10-10T10:29:52.956Z,8.57
2022-10-10T10:32:28.828Z,6.40
2022-10-10T10:34:56.916Z,5.75
2022-10-10T10:37:28.268Z,4.77
2022-10-10T10:40:34.749Z,4.30
2022-10-10T10:43:27.405Z,4.77
2022-10-10T10:46:01.842Z,5.78
2022-10-10T10:48:34.540Z,6.05
2022-10-10T10:51:02.261Z,6.25
2022-10-10T10:53:39.930Z,5.43
2022-10-10T10:56:18.605Z,5.65
2022-10-10T11:02:26.464Z,6.30
2022-10-10T11:05:23.205Z,6.57
2022-10-10T11:08:09.289Z,5.80
2022-10-10T11:10:37.421Z,6.47
2022-10-10T11:13:04.457Z,5.45
2022-10-10T11:16:05.513Z,6.20
2022-10-10T11:18:32.385Z,5.05
2022-10-10T11:21:08.871Z,4.97
2022-10-10T11:23:42.993Z,6.28
2022-10-10T11:26:14.716Z,5.80
2022-10-10T11:28:49.582Z,9.03
2022-10-10T11:31:21.150Z,6.22
2022-10-10T11:33:54.305Z,6.40
2022-10-10T11:36:24.788Z,5.25
2022-10-10T11:38:51.824Z,6.50
2022-10-10T11:41:23.137Z,5.25
2022-10-10T11:43:51.455Z,7.55
2022-10-10T11:46:25.349Z,4.80
2022-10-10T11:48:56.283Z,6.35
2022-10-10T11:51:27.080Z,6.60
2022-10-10T11:53:57.260Z,6.40
2022-10-10T11:56:35.020Z,5.82
2022-10-10T11:59:05.942Z,6.03
2022-10-10T12:01:43.867Z,4.93
2022-10-10T12:04:10.904Z,6.33
2022-10-10T12:06:40.930Z,7.32
2022-10-10T12:09:11.068Z,6.35
2022-10-10T12:11:43.924Z,8.05
2022-10-10T12:14:14.395Z,5.97
2022-10-10T12:16:41.499Z,6.38
2022-10-10T12:19:15.723Z,6.00
2022-10-10T12:22:00.467Z,5.80
2022-10-10T12:24:31.304Z,6.45
2022-10-10T12:26:57.935Z,8.02
2022-10-10T12:29:41.598Z,9.18
2022-10-10T12:32:14.775Z,5.00
2022-10-10T12:34:58.903Z,5.10
2022-10-10T12:37:29.205Z,6.75
2022-10-10T12:40:11.795Z,6.13
2022-10-10T12:42:58.832Z,6.03
2022-10-10T12:45:45.847Z,6.65
2022-10-10T12:48:20.851Z,6.03
2022-10-10T12:51:04.052Z,4.72
2022-10-10T12:53:34.273Z,6.28
2022-10-10T12:56:02.574Z,7.57
2022-10-10T12:58:31.938Z,5.82
2022-10-10T13:01:00.927Z,5.43
2022-10-10T13:03:32.436Z,5.10
2022-10-10T13:06:03.364Z,5.53
2022-10-10T13:08:30.899Z,6.20
2022-10-10T13:11:15.347Z,5.68
2022-10-10T13:13:50.939Z,4.70
2022-10-10T13:16:19.531Z,4.45
2022-10-10T13:18:50.892Z,5.75
2022-10-10T13:21:21.640Z,4.63
2022-10-10T13:26:38.406Z,5.45
2022-10-10T13:29:17.318Z,6.63
2022-10-10T13:31:44.560Z,4.55
2022-10-10T13:34:16.310Z,4.25
2022-10-10T13:36:43.614Z,6.30
2022-10-10T13:39:15.854Z,6.57
2022-10-10T13:41:47.060Z,5.82
2022-10-10T13:44:15.235Z,5.43
2022-10-10T13:46:42.879Z,5.57
2022-10-10T13:49:29.874Z,5.07
2022-10-10T13:52:01.742Z,4.07
2022-10-10T13:54:44.511Z,5.70
2022-10-10T13:57:27.699Z,6.35
2022-10-10T14:00:14.642Z,8.03
2022-10-10T14:02:43.216Z,8.07
2022-10-10T14:05:14.822Z,6.53
2022-10-10T14:07:47.083Z,5.63
2022-10-10T14:10:18.082Z,5.97
2022-10-10T14:13:01.018Z,6.78
2022-10-10T14:15:37.126Z,5.93
2022-10-10T14:18:11.302Z,6.50
2022-10-10T14:20:38.450Z,7.63
2022-10-10T14:23:05.540Z,9.60
2022-10-10T14:25:32.732Z,5.78
2022-10-10T14:27:59.794Z,6.38
2022-10-10T14:30:26.878Z,6.43
2022-10-10T14:32:53.962Z,5.93
2022-10-10T14:35:21.054Z,5.05
2022-10-10T14:37:48.154Z,6.40
2022-10-10T14:40:20.595Z,5.78
2022-10-10T14:42:48.022Z,6.00
2022-10-10T14:45:16.261Z,5.97
2022-10-10T14:47:43.686Z,5.47
2022-10-10T14:50:19.190Z,5.90
2022-10-10T14:52:46.329Z,5.13
2022-10-10T14:55:13.497Z,5.93
2022-10-10T14:57:40.569Z,7.00
2022-10-10T15:00:09.330Z,4.68
2022-10-10T15:02:36.483Z,6.63
2022-10-10T15:05:03.744Z,4.65
2022-10-10T15:07:30.808Z,4.05
2022-10-10T15:12:45.301Z,4.55
2022-10-10T15:15:13.413Z,4.85
2022-10-10T15:17:41.065Z,5.43
2022-10-10T15:20:09.360Z,5.55
2022-10-10T15:22:37.076Z,5.25
2022-10-10T15:25:04.674Z,4.78
2022-10-10T15:27:32.791Z,3.75
2022-10-10T15:30:00.641Z,5.73
2022-10-10T15:32:27.936Z,3.53
2022-10-10T15:34:55.111Z,6.13
2022-10-10T15:37:24.633Z,5.28
2022-10-10T15:39:51.771Z,4.80
2022-10-10T15:42:22.922Z,4.55
2022-10-10T15:44:51.507Z,5.80
2022-10-10T15:47:19.353Z,4.38
2022-10-10T15:49:46.489Z,6.07
2022-10-10T15:52:13.643Z,6.55
2022-10-10T15:54:40.863Z,4.35
2022-10-10T15:57:07.913Z,4.50
2022-10-10T15:59:37.902Z,3.83
2022-10-10T16:02:07.725Z,6.83
2022-10-10T16:04:34.836Z,5.97
2022-10-10T16:09:48.981Z,6.25
2022-10-10T16:12:16.006Z,5.57
2022-10-10T16:14:43.204Z,4.00
2022-10-10T16:17:10.300Z,4.15
2022-10-10T16:19:37.488Z,5.75
2022-10-10T16:22:07.595Z,4.93
2022-10-10T16:24:34.799Z,4.17
2022-10-10T16:27:02.091Z,7.05
2022-10-10T16:29:29.264Z,7.50
2022-10-10T16:31:56.417Z,7.68
2022-10-10T16:34:23.564Z,7.63
2022-10-10T16:36:50.652Z,6.60
2022-10-10T16:39:17.835Z,10.93
2022-10-10T16:41:48.984Z,9.25
2022-10-10T16:44:17.339Z,10.20
2022-10-10T16:46:44.394Z,12.65
2022-10-10T16:49:13.623Z,8.55
2022-10-10T16:51:40.751Z,7.63
2022-10-10T16:54:08.035Z,7.68
2022-10-10T16:56:35.643Z,10.68
2022-10-10T16:59:02.895Z,5.55
2022-10-10T17:01:30.080Z,8.93
2022-10-10T17:03:58.836Z,7.15
2022-10-10T17:06:28.068Z,7.97
2022-10-10T17:08:57.860Z,8.30
2022-10-10T17:11:25.592Z,16.37
2022-10-10T17:13:53.029Z,9.52
2022-10-10T17:16:59.936Z,13.85
2022-10-10T17:19:09.180Z,24.57
2022-10-10T17:21:36.351Z,22.23
2022-10-10T17:24:03.512Z,29.40
2022-10-10T17:26:30.932Z,23.02
2022-10-10T17:28:58.906Z,22.55
2022-10-10T17:31:26.378Z,28.90
2022-10-10T17:33:54.770Z,22.75
2022-10-10T17:36:24.294Z,20.35
2022-10-10T17:38:51.822Z,14.95
2022-10-10T17:41:19.439Z,14.30
2022-10-10T17:43:46.616Z,33.60
2022-10-10T17:46:33.831Z,26.63
2022-10-10T17:49:01.799Z,21.10
2022-10-10T17:51:29.061Z,12.73
2022-10-10T17:53:56.153Z,10.82
2022-10-10T17:56:23.301Z,11.20
2022-10-10T17:58:50.740Z,12.10
2022-10-10T18:01:19.224Z,11.48
2022-10-10T18:03:46.644Z,11.25
2022-10-10T18:06:15.409Z,15.32
2022-10-10T18:08:42.768Z,16.20
2022-10-10T18:11:14.274Z,21.60
2022-10-10T18:13:41.502Z,24.30
2022-10-10T18:16:10.139Z,20.05
2022-10-10T18:18:40.230Z,17.55
2022-10-10T18:21:08.784Z,14.88
2022-10-10T18:23:36.234Z,11.60
2022-10-10T18:26:04.437Z,13.73
2022-10-10T18:28:32.821Z,11.13
2022-10-10T18:31:00.321Z,13.00
2022-10-10T18:33:27.620Z,12.95
2022-10-10T18:35:54.684Z,10.77
2022-10-10T18:38:21.787Z,15.32
2022-10-10T18:40:48.820Z,26.80
2022-10-10T18:43:18.224Z,22.58
2022-10-10T18:45:45.228Z,20.45
2022-10-10T18:48:12.332Z,16.73
2022-10-10T18:50:39.524Z,15.83
2022-10-10T18:53:06.794Z,13.15
2022-10-10T18:55:37.156Z,13.30
2022-10-10T18:58:04.203Z,10.63
2022-10-10T19:00:31.287Z,13.07
2022-10-10T19:02:58.337Z,11.07
2022-10-10T19:05:25.393Z,11.93
2022-10-10T19:07:52.500Z,10.30
2022-10-10T19:10:19.811Z,10.03
2022-10-10T19:12:47.671Z,10.17
2022-10-10T19:15:14.809Z,10.25
2022-10-10T19:17:41.874Z,9.77
2022-10-10T19:20:09.159Z,12.05
2022-10-10T19:22:36.277Z,12.93
2022-10-10T19:25:03.675Z,12.93
2022-10-10T19:27:30.820Z,13.10
2022-10-10T19:29:59.031Z,10.10
2022-10-10T19:32:27.559Z,11.45
2022-10-10T19:34:54.627Z,13.13
2022-10-10T19:37:21.791Z,9.98
2022-10-10T19:39:48.899Z,9.80
2022-10-10T19:42:15.967Z,11.90
2022-10-10T19:44:43.087Z,11.23
2022-10-10T19:47:10.111Z,12.07
2022-10-10T19:49:37.239Z,11.10
2022-10-10T19:52:04.367Z,12.15
2022-10-10T19:54:31.483Z,12.55
2022-10-10T19:56:58.570Z,9.43
2022-10-10T19:59:26.301Z,12.85
2022-10-10T20:01:53.361Z,10.15
2022-10-10T20:04:20.507Z,14.30
2022-10-10T20:06:47.658Z,12.10
2022-10-10T20:09:14.710Z,9.70
2022-10-10T20:11:41.806Z,13.80
2022-10-10T20:14:09.661Z,12.77
2022-10-10T20:16:36.877Z,12.60
2022-10-10T20:19:04.010Z,11.10
2022-10-10T20:21:32.716Z,10.57
2022-10-10T20:24:00.807Z,10.93
2022-10-10T20:26:28.127Z,9.80
2022-10-10T20:28:55.404Z,11.23
2022-10-10T20:31:23.631Z,11.75
2022-10-10T20:33:51.725Z,11.15
2022-10-10T20:36:19.521Z,11.98
2022-10-10T20:38:52.511Z,14.15
2022-10-10T20:41:19.603Z,12.27
2022-10-10T20:43:46.703Z,13.57
2022-10-10T20:46:14.718Z,11.00
2022-10-10T20:48:42.381Z,11.52
2022-10-10T20:51:11.844Z,12.18
2022-10-10T20:53:41.673Z,12.48
2022-10-10T20:56:10.138Z,18.20
2022-10-10T20:58:38.008Z,14.93
2022-10-10T21:01:09.354Z,13.93
2022-10-10T21:03:37.176Z,12.95
2022-10-10T21:06:05.858Z,14.95
2022-10-10T21:08:33.170Z,13.75
2022-10-10T21:11:01.487Z,12.57
2022-10-10T21:13:28.930Z,12.63
2022-10-10T21:15:56.092Z,11.40
2022-10-10T21:18:23.231Z,11.60
2022-10-10T21:20:50.454Z,10.95
2022-10-10T21:23:17.410Z,10.20
2022-10-10T21:25:45.272Z,12.00
2022-10-10T21:28:12.412Z,12.23
2022-10-10T21:30:46.839Z,12.35
2022-10-10T21:33:14.106Z,12.48
2022-10-10T21:35:41.335Z,13.70
2022-10-10T21:38:08.303Z,9.00
2022-10-10T21:40:36.251Z,11.20
2022-10-10T21:43:03.303Z,12.10
2022-10-10T21:45:30.383Z,11.50
2022-10-10T21:47:57.826Z,13.70
2022-10-10T21:50:24.960Z,13.73
2022-10-10T21:52:51.996Z,12.73
2022-10-10T21:55:19.135Z,11.88
2022-10-10T21:57:47.783Z,11.98
2022-10-10T22:00:15.492Z,11.98
2022-10-10T22:02:43.343Z,15.50
2022-10-10T22:05:11.364Z,14.60
2022-10-10T22:07:39.039Z,15.05
2022-10-10T22:10:06.534Z,15.03
2022-10-10T22:12:33.683Z,14.07
2022-10-10T22:15:00.866Z,11.88
2022-10-10T22:17:27.965Z,16.10
2022-10-10T22:19:55.026Z,9.73
2022-10-10T22:22:22.087Z,0.30
2022-10-10T22:24:49.158Z,1.50
2022-10-10T22:27:16.235Z,0.60
2022-10-10T22:29:43.314Z,0.10
2022-10-10T22:32:10.370Z,0.20
2022-10-10T22:34:37.510Z,0.20
2022-10-10T22:37:04.542Z,0.40
2022-10-10T22:39:31.626Z,0.20
2022-10-10T22:41:58.658Z,0.10
2022-10-10T22:44:25.879Z,0.60
2022-10-10T22:46:52.942Z,0.40
2022-10-10T22:49:20.037Z,1.17
2022-10-10T22:51:47.134Z,0.10
2022-10-10T22:54:14.290Z,0.30
2022-10-10T22:56:41.387Z,9.30
2022-10-10T22:59:08.510Z,0.55
2022-10-10T23:01:36.873Z,0.28
2022-10-10T23:04:10.160Z,0.10
2022-10-10T23:06:37.488Z,0.20
2022-10-10T23:09:04.558Z,0.20
2022-10-10T23:11:31.689Z,0.30
2022-10-10T23:13:58.737Z,0.20
2022-10-10T23:16:25.856Z,0.30
2022-10-10T23:18:54.085Z,0.20
2022-10-10T23:21:21.212Z,0.40
2022-10-10T23:23:48.286Z,0.13
2022-10-10T23:26:15.342Z,0.10
2022-10-10T23:28:44.903Z,0.55
2022-10-10T23:31:12.626Z,0.90
2022-10-10T23:33:39.817Z,0.10
2022-10-10T23:36:08.865Z,0.20
2022-10-10T23:38:36.401Z,0.10
2022-10-10T23:41:04.121Z,0.00
2022-10-10T23:43:31.221Z,0.10
2022-10-10T23:45:58.276Z,0.17
2022-10-10T23:48:25.412Z,0.00
2022-10-10T23:50:52.984Z,0.80
2022-10-10T23:53:20.225Z,0.10
2022-10-10T23:55:47.813Z,0.63
2022-10-10T23:58:15.310Z,0.10
